createdAt,value
2016-10-08T00:00:10.080Z,0
2016-10-08T00:01:23.173Z,0
2016-10-08T00:02:36.353Z,0
2016-10-08T00:03:49.972Z,0
2016-10-08T00:06:05.275Z,0
2016-10-08T00:07:18.920Z,0
2016-10-08T00:08:32.577Z,0
2016-10-08T00:09:46.445Z,0
2016-10-08T00:11:00.082Z,0
2016-10-08T00:12:13.734Z,0
2016-10-08T00:13:27.562Z,0
2016-10-08T00:14:41.189Z,0
2016-10-08T00:15:54.754Z,0
2016-10-08T00:17:07.869Z,0
2016-10-08T00:18:21.003Z,0
2016-10-08T00:19:34.892Z,0
2016-10-08T00:20:48.551Z,0
2016-10-08T00:22:02.227Z,0
2016-10-08T00:23:15.924Z,0
2016-10-08T00:24:29.017Z,0
2016-10-08T00:25:42.691Z,0
2016-10-08T00:26:56.314Z,0
2016-10-08T00:28:23.894Z,0
2016-10-08T00:29:36.999Z,0
2016-10-08T00:30:50.608Z,0
2016-10-08T00:32:04.221Z,0
2016-10-08T00:33:18.312Z,0
2016-10-08T00:34:31.450Z,0
2016-10-08T00:35:45.200Z,0
2016-10-08T00:36:58.857Z,0
2016-10-08T00:38:12.504Z,0
2016-10-08T00:39:26.118Z,0
2016-10-08T00:40:39.913Z,0
2016-10-08T00:41:53.527Z,0
2016-10-08T00:43:07.185Z,0
2016-10-08T00:44:21.035Z,0
2016-10-08T00:45:34.653Z,0
2016-10-08T00:46:48.286Z,0
2016-10-08T00:48:01.899Z,0
2016-10-08T00:49:15.503Z,0
2016-10-08T00:50:29.144Z,0
2016-10-08T00:51:42.790Z,0
2016-10-08T00:52:56.433Z,0
2016-10-08T00:54:10.049Z,0
2016-10-08T00:55:23.725Z,0
2016-10-08T00:56:37.411Z,0
2016-10-08T00:57:50.974Z,0
2016-10-08T00:59:04.599Z,0
2016-10-08T01:00:18.485Z,0
2016-10-08T01:01:32.106Z,0
2016-10-08T01:02:45.563Z,0
2016-10-08T01:03:59.169Z,0
2016-10-08T01:05:12.729Z,0
2016-10-08T01:06:25.928Z,0
2016-10-08T01:07:39.573Z,0
2016-10-08T01:08:53.289Z,0
2016-10-08T01:10:06.880Z,0
2016-10-08T01:11:20.519Z,0
2016-10-08T01:12:34.206Z,0
2016-10-08T01:13:47.822Z,0
2016-10-08T01:15:01.687Z,0
2016-10-08T01:16:15.396Z,0
2016-10-08T01:17:28.530Z,0
2016-10-08T01:18:41.965Z,0
2016-10-08T01:19:55.689Z,0
2016-10-08T01:21:09.457Z,0
2016-10-08T01:22:23.216Z,0
2016-10-08T01:23:36.863Z,0
2016-10-08T01:24:50.502Z,0
2016-10-08T01:26:04.211Z,0
2016-10-08T01:27:17.860Z,0
2016-10-08T01:28:31.382Z,0
2016-10-08T01:29:45.411Z,0
2016-10-08T01:30:59.026Z,0
2016-10-08T01:32:12.637Z,0
2016-10-08T01:33:26.300Z,0
2016-10-08T01:34:39.913Z,0
2016-10-08T01:35:53.578Z,0
2016-10-08T01:37:07.225Z,0
2016-10-08T01:38:20.870Z,0
2016-10-08T01:39:34.433Z,0
2016-10-08T01:40:48.074Z,0
2016-10-08T01:42:01.725Z,0
2016-10-08T01:43:15.492Z,0
2016-10-08T01:44:29.059Z,0
2016-10-08T01:45:42.762Z,0
2016-10-08T01:46:56.455Z,0
2016-10-08T01:48:09.593Z,0
2016-10-08T01:49:22.698Z,0
2016-10-08T01:50:36.403Z,0
2016-10-08T01:51:50.082Z,0
2016-10-08T01:53:03.741Z,0
2016-10-08T01:54:17.035Z,0
2016-10-08T01:55:30.760Z,0
2016-10-08T01:56:43.856Z,0
2016-10-08T01:57:57.560Z,0
2016-10-08T01:59:11.226Z,0
2016-10-08T02:00:24.836Z,0
2016-10-08T02:01:38.450Z,0
2016-10-08T02:02:52.292Z,0
2016-10-08T02:04:06.201Z,0
2016-10-08T02:05:20.153Z,0
2016-10-08T02:06:33.773Z,0
2016-10-08T02:07:47.540Z,0
2016-10-08T02:09:01.176Z,0
2016-10-08T02:10:14.772Z,0
2016-10-08T02:11:28.407Z,0
2016-10-08T02:12:42.462Z,0
2016-10-08T02:13:55.547Z,0
2016-10-08T02:15:09.455Z,0
2016-10-08T02:16:23.058Z,0
2016-10-08T02:17:36.737Z,0
2016-10-08T02:18:50.393Z,0
2016-10-08T02:20:04.053Z,0
2016-10-08T02:21:17.187Z,0
2016-10-08T02:22:30.860Z,0
2016-10-08T02:23:44.569Z,0
2016-10-08T02:24:57.684Z,0
2016-10-08T02:26:11.304Z,0
2016-10-08T02:27:24.944Z,0
2016-10-08T02:29:09.655Z,0
2016-10-08T02:30:23.294Z,0
2016-10-08T02:31:36.989Z,0
2016-10-08T02:32:49.984Z,0
2016-10-08T02:34:03.621Z,0
2016-10-08T02:35:17.303Z,0
2016-10-08T02:36:30.943Z,0
2016-10-08T02:37:44.583Z,0
2016-10-08T02:38:58.221Z,0
2016-10-08T02:40:11.888Z,0
2016-10-08T02:41:25.558Z,0
2016-10-08T02:42:38.663Z,0
2016-10-08T02:43:52.339Z,0
2016-10-08T02:45:05.716Z,0
2016-10-08T02:46:19.432Z,0
2016-10-08T02:47:33.076Z,0
2016-10-08T02:48:46.687Z,0
2016-10-08T02:50:00.342Z,0
2016-10-08T02:51:13.969Z,0
2016-10-08T02:52:27.529Z,0
2016-10-08T02:53:41.146Z,0
2016-10-08T02:54:54.816Z,0
2016-10-08T02:56:08.408Z,0
2016-10-08T02:57:22.038Z,0
2016-10-08T02:58:35.676Z,0
2016-10-08T02:59:49.354Z,0
2016-10-08T03:01:02.386Z,0
2016-10-08T03:02:15.965Z,0
2016-10-08T03:03:29.536Z,0
2016-10-08T03:04:43.136Z,0
2016-10-08T03:05:56.732Z,0
2016-10-08T03:07:10.066Z,0
2016-10-08T03:08:23.638Z,0
2016-10-08T03:09:37.287Z,0
2016-10-08T03:10:50.908Z,0
2016-10-08T03:12:04.585Z,0
2016-10-08T03:13:18.509Z,0
2016-10-08T03:14:32.205Z,0
2016-10-08T03:15:45.797Z,0
2016-10-08T03:16:59.429Z,0
2016-10-08T03:18:13.042Z,0
2016-10-08T03:19:26.618Z,0
2016-10-08T03:20:40.252Z,0
2016-10-08T03:21:53.885Z,0
2016-10-08T03:23:07.466Z,0
2016-10-08T03:24:20.581Z,0
2016-10-08T03:25:34.220Z,0
2016-10-08T03:26:47.859Z,0
2016-10-08T03:28:01.537Z,0
2016-10-08T03:29:15.501Z,0
2016-10-08T03:30:29.153Z,0
2016-10-08T03:31:42.781Z,0
2016-10-08T03:32:56.412Z,0
2016-10-08T03:34:09.613Z,0
2016-10-08T03:35:23.190Z,0
2016-10-08T03:36:36.845Z,0
2016-10-08T03:37:50.524Z,0
2016-10-08T03:39:04.127Z,0
2016-10-08T03:40:17.721Z,0
2016-10-08T03:41:31.329Z,0
2016-10-08T03:42:44.991Z,0
2016-10-08T03:43:58.676Z,0
2016-10-08T03:45:12.594Z,0
2016-10-08T03:46:26.152Z,0
2016-10-08T03:47:39.518Z,0
2016-10-08T03:48:52.072Z,0
2016-10-08T03:50:05.860Z,0
2016-10-08T03:51:19.516Z,0
2016-10-08T03:52:33.257Z,0
2016-10-08T03:53:46.865Z,0
2016-10-08T03:55:00.497Z,0
2016-10-08T03:56:14.116Z,0
2016-10-08T03:57:27.733Z,0
2016-10-08T03:58:41.412Z,0
2016-10-08T03:59:54.959Z,0
2016-10-08T04:01:08.659Z,0
2016-10-08T04:02:22.260Z,0
2016-10-08T04:03:35.890Z,0
2016-10-08T04:04:49.564Z,0
2016-10-08T04:06:03.092Z,0
2016-10-08T04:07:16.750Z,0
2016-10-08T04:08:44.342Z,0
2016-10-08T04:09:58.035Z,0
2016-10-08T04:11:11.594Z,0
2016-10-08T04:12:25.185Z,0
2016-10-08T04:13:38.811Z,0
2016-10-08T04:14:52.360Z,0
2016-10-08T04:16:06.378Z,0
2016-10-08T04:17:19.997Z,0
2016-10-08T04:18:33.072Z,0
2016-10-08T04:19:46.740Z,0
2016-10-08T04:21:00.340Z,0
2016-10-08T04:22:13.976Z,0
2016-10-08T04:23:27.592Z,0
2016-10-08T04:24:41.255Z,0
2016-10-08T04:25:55.098Z,0
2016-10-08T04:27:08.687Z,0
2016-10-08T04:28:22.310Z,0
2016-10-08T04:29:35.928Z,0
2016-10-08T04:30:49.510Z,0
2016-10-08T04:32:03.174Z,0
2016-10-08T04:33:16.284Z,0
2016-10-08T04:34:29.429Z,0
2016-10-08T04:35:43.025Z,0
2016-10-08T04:36:56.697Z,0
2016-10-08T04:38:10.289Z,0
2016-10-08T04:39:23.282Z,0
2016-10-08T04:40:36.940Z,0
2016-10-08T04:41:50.658Z,0
2016-10-08T04:43:04.385Z,0
2016-10-08T04:44:17.990Z,0
2016-10-08T04:45:31.627Z,0
2016-10-08T04:46:45.754Z,0
2016-10-08T04:47:59.325Z,0
2016-10-08T04:49:12.968Z,0
2016-10-08T04:50:26.554Z,0
2016-10-08T04:51:40.225Z,0
2016-10-08T04:52:53.844Z,0
2016-10-08T04:54:07.503Z,0
2016-10-08T04:55:20.869Z,0
2016-10-08T04:56:34.536Z,0
2016-10-08T04:57:48.197Z,0
2016-10-08T04:59:01.207Z,0
2016-10-08T05:00:14.857Z,0
2016-10-08T05:01:28.523Z,0
2016-10-08T05:02:42.636Z,0
2016-10-08T05:03:56.206Z,0
2016-10-08T05:05:09.788Z,0
2016-10-08T05:06:23.446Z,0
2016-10-08T05:07:37.089Z,0
2016-10-08T05:08:50.198Z,0
2016-10-08T05:10:04.147Z,0
2016-10-08T05:11:19.341Z,0
2016-10-08T05:12:33.249Z,0
2016-10-08T05:13:46.856Z,0
2016-10-08T05:15:00.548Z,0
2016-10-08T05:16:14.217Z,0
2016-10-08T05:17:27.899Z,0
2016-10-08T05:18:41.499Z,0
2016-10-08T05:19:55.103Z,0
2016-10-08T05:21:08.703Z,0
2016-10-08T05:22:22.322Z,0
2016-10-08T05:23:35.403Z,0
2016-10-08T05:24:49.093Z,0
2016-10-08T05:26:02.691Z,0
2016-10-08T05:27:16.294Z,0
2016-10-08T05:28:29.946Z,0
2016-10-08T05:29:43.592Z,0
2016-10-08T05:30:57.200Z,0
2016-10-08T05:32:10.348Z,0
2016-10-08T05:33:23.999Z,0
2016-10-08T05:34:37.596Z,0
2016-10-08T05:35:51.213Z,0
2016-10-08T05:37:04.841Z,0
2016-10-08T05:38:18.964Z,0
2016-10-08T05:39:32.619Z,0
2016-10-08T05:40:46.298Z,0
2016-10-08T05:41:59.851Z,0
2016-10-08T05:43:13.451Z,0
2016-10-08T05:44:27.099Z,0
2016-10-08T05:45:40.750Z,0
2016-10-08T05:46:55.432Z,0
2016-10-08T05:48:09.646Z,0
2016-10-08T05:49:23.290Z,0
2016-10-08T05:50:36.938Z,0
2016-10-08T05:51:50.584Z,0
2016-10-08T05:53:04.211Z,0
2016-10-08T05:54:17.863Z,0
2016-10-08T05:55:31.705Z,0
2016-10-08T05:56:45.766Z,0
2016-10-08T05:57:59.345Z,0
2016-10-08T05:59:12.663Z,0
2016-10-08T06:00:26.302Z,0
2016-10-08T06:01:39.686Z,0
2016-10-08T06:02:53.375Z,0
2016-10-08T06:04:07.068Z,0
2016-10-08T06:05:20.722Z,0
2016-10-08T06:06:34.331Z,0
2016-10-08T06:07:47.961Z,0
2016-10-08T06:09:01.564Z,0
2016-10-08T06:10:15.195Z,0
2016-10-08T06:11:28.850Z,0
2016-10-08T06:12:42.667Z,0
2016-10-08T06:13:56.027Z,0
2016-10-08T06:15:09.683Z,0
2016-10-08T06:16:23.299Z,0
2016-10-08T06:17:36.997Z,0
2016-10-08T06:18:50.703Z,0
2016-10-08T06:20:04.320Z,0
2016-10-08T06:21:17.955Z,0
2016-10-08T06:22:31.591Z,0
2016-10-08T06:23:45.854Z,0
2016-10-08T06:24:59.570Z,0
2016-10-08T06:26:13.185Z,0
2016-10-08T06:27:26.890Z,0
2016-10-08T06:28:40.448Z,0
2016-10-08T06:29:53.570Z,0
2016-10-08T06:31:07.225Z,0
2016-10-08T06:32:20.562Z,0
2016-10-08T06:33:34.239Z,0
2016-10-08T06:34:47.883Z,0
2016-10-08T06:36:01.715Z,0
2016-10-08T06:37:15.811Z,0
2016-10-08T06:38:29.261Z,0
2016-10-08T06:39:42.931Z,0
2016-10-08T06:40:56.059Z,0
2016-10-08T06:42:09.716Z,0
2016-10-08T06:43:23.483Z,0
2016-10-08T06:44:37.115Z,0
2016-10-08T06:45:50.714Z,0
2016-10-08T06:47:04.425Z,0
2016-10-08T06:48:17.541Z,0
2016-10-08T06:49:30.915Z,0
2016-10-08T06:50:44.506Z,0
2016-10-08T06:51:58.153Z,0
2016-10-08T06:53:11.843Z,0
2016-10-08T06:54:25.423Z,0
2016-10-08T06:55:39.512Z,0
2016-10-08T06:56:53.141Z,0
2016-10-08T06:58:06.735Z,0
2016-10-08T06:59:20.502Z,0
2016-10-08T07:00:34.128Z,0
2016-10-08T07:01:47.711Z,0
2016-10-08T07:03:01.394Z,0
2016-10-08T07:04:15.206Z,0
2016-10-08T07:05:28.818Z,0
2016-10-08T07:06:41.854Z,0
2016-10-08T07:07:55.466Z,0
2016-10-08T07:09:09.609Z,0
2016-10-08T07:10:23.214Z,0
2016-10-08T07:11:36.915Z,0
2016-10-08T07:12:50.556Z,0
2016-10-08T07:14:03.695Z,0
2016-10-08T07:15:17.311Z,0
2016-10-08T07:16:30.899Z,0
2016-10-08T07:17:44.519Z,0
2016-10-08T07:18:58.368Z,0
2016-10-08T07:20:11.983Z,0
2016-10-08T07:21:25.546Z,0
2016-10-08T07:22:39.656Z,0
2016-10-08T07:23:53.532Z,0
2016-10-08T07:25:07.122Z,0
2016-10-08T07:26:20.864Z,0
2016-10-08T07:27:34.423Z,0
2016-10-08T07:28:48.081Z,0
2016-10-08T07:30:01.751Z,0
2016-10-08T07:31:15.826Z,0
2016-10-08T07:32:29.466Z,0
2016-10-08T07:33:43.111Z,0
2016-10-08T07:34:56.849Z,0
2016-10-08T07:36:09.965Z,0
2016-10-08T07:37:23.647Z,0
2016-10-08T07:38:37.335Z,0
2016-10-08T07:39:50.951Z,0
2016-10-08T07:41:04.591Z,0
2016-10-08T07:42:17.650Z,0
2016-10-08T07:43:31.279Z,0
2016-10-08T07:44:44.864Z,0
2016-10-08T07:45:58.497Z,0
2016-10-08T07:47:12.083Z,0
2016-10-08T07:48:25.730Z,0
2016-10-08T07:49:38.847Z,0
2016-10-08T07:50:52.562Z,0
2016-10-08T07:52:06.538Z,0
2016-10-08T07:53:20.176Z,0
2016-10-08T07:54:33.796Z,0
2016-10-08T07:55:47.444Z,0
2016-10-08T07:57:01.145Z,0
2016-10-08T07:58:14.774Z,0
2016-10-08T07:59:28.482Z,0
2016-10-08T08:00:42.132Z,0
2016-10-08T08:01:55.786Z,0
2016-10-08T08:03:09.629Z,0
2016-10-08T08:04:23.286Z,0
2016-10-08T08:05:36.657Z,0
2016-10-08T08:06:50.348Z,0
2016-10-08T08:08:03.994Z,0
2016-10-08T08:09:17.595Z,0
2016-10-08T08:10:31.146Z,0
2016-10-08T08:11:44.853Z,0
2016-10-08T08:12:58.641Z,0
2016-10-08T08:14:12.722Z,0
2016-10-08T08:15:26.323Z,0
2016-10-08T08:16:40.000Z,0
2016-10-08T08:17:53.663Z,0
2016-10-08T08:19:07.016Z,0
2016-10-08T08:20:20.683Z,0
2016-10-08T08:21:34.362Z,0
2016-10-08T08:22:47.421Z,0
2016-10-08T08:24:01.037Z,0
2016-10-08T08:25:14.650Z,0
2016-10-08T08:26:28.219Z,0
2016-10-08T08:27:41.892Z,0
2016-10-08T08:28:55.576Z,0
2016-10-08T08:30:40.301Z,0
2016-10-08T08:31:53.993Z,0
2016-10-08T08:33:07.619Z,0
2016-10-08T08:34:21.166Z,0
2016-10-08T08:35:34.797Z,0
2016-10-08T08:36:48.963Z,0
2016-10-08T08:38:02.685Z,0
2016-10-08T08:39:16.329Z,0
2016-10-08T08:40:29.972Z,0
2016-10-08T08:41:43.112Z,0
2016-10-08T08:42:56.720Z,0
2016-10-08T08:44:10.353Z,0
2016-10-08T08:45:24.009Z,0
2016-10-08T08:46:37.700Z,0
2016-10-08T08:47:50.826Z,0
2016-10-08T08:49:04.587Z,0
2016-10-08T08:50:18.375Z,0
2016-10-08T08:51:32.058Z,0
2016-10-08T08:52:45.915Z,0
2016-10-08T08:53:59.011Z,0
2016-10-08T08:55:12.769Z,0
2016-10-08T08:56:26.352Z,0
2016-10-08T08:57:39.913Z,0
2016-10-08T08:58:53.587Z,0
2016-10-08T09:00:06.750Z,0
2016-10-08T09:01:20.459Z,0
2016-10-08T09:02:34.135Z,0
2016-10-08T09:03:47.774Z,0
2016-10-08T09:05:01.394Z,0
2016-10-08T09:06:15.014Z,5
2016-10-08T09:07:28.150Z,5
2016-10-08T09:08:41.778Z,5
2016-10-08T09:09:55.008Z,5
2016-10-08T09:11:08.346Z,5
2016-10-08T09:12:21.536Z,5
2016-10-08T09:13:34.646Z,5
2016-10-08T09:14:48.230Z,5
2016-10-08T09:16:01.377Z,5
2016-10-08T09:17:15.079Z,5
2016-10-08T09:18:28.718Z,5
2016-10-08T09:19:42.844Z,5
2016-10-08T09:20:56.483Z,5
2016-10-08T09:22:10.122Z,5
2016-10-08T09:23:23.188Z,5
2016-10-08T09:24:36.863Z,5
2016-10-08T09:25:49.445Z,5
2016-10-08T09:27:02.584Z,5
2016-10-08T09:28:15.991Z,5
2016-10-08T09:29:29.565Z,5
2016-10-08T09:30:43.171Z,5
2016-10-08T09:31:55.749Z,5
2016-10-08T09:33:09.645Z,5
2016-10-08T09:34:23.362Z,5
2016-10-08T09:35:37.004Z,5
2016-10-08T09:36:50.141Z,5
2016-10-08T09:38:03.811Z,5
2016-10-08T09:39:17.417Z,5
2016-10-08T09:40:31.089Z,5
2016-10-08T09:41:44.738Z,5
2016-10-08T09:42:58.380Z,5
2016-10-08T09:44:11.445Z,5
2016-10-08T09:45:25.068Z,5
2016-10-08T09:46:38.977Z,5
2016-10-08T09:47:52.602Z,5
2016-10-08T09:49:05.710Z,5
2016-10-08T09:50:19.416Z,5
2016-10-08T09:51:32.546Z,5
2016-10-08T09:52:46.148Z,5
2016-10-08T09:53:59.948Z,5
2016-10-08T09:55:13.571Z,10
2016-10-08T09:56:26.751Z,10
2016-10-08T09:57:40.431Z,10
2016-10-08T09:58:54.070Z,10
2016-10-08T10:00:07.673Z,10
2016-10-08T10:01:21.323Z,10
2016-10-08T10:02:34.496Z,10
2016-10-08T10:03:47.523Z,10
2016-10-08T10:05:01.178Z,10
2016-10-08T10:06:14.365Z,10
2016-10-08T10:07:27.973Z,10
2016-10-08T10:08:41.598Z,10
2016-10-08T10:09:55.206Z,10
2016-10-08T10:11:08.272Z,10
2016-10-08T10:12:21.999Z,10
2016-10-08T10:13:34.604Z,10
2016-10-08T10:14:48.288Z,10
2016-10-08T10:16:01.904Z,10
2016-10-08T10:17:16.019Z,10
2016-10-08T10:18:29.712Z,10
2016-10-08T10:19:42.867Z,10
2016-10-08T10:20:56.483Z,10
2016-10-08T10:22:10.075Z,10
2016-10-08T10:23:23.211Z,10
2016-10-08T10:24:37.151Z,10
2016-10-08T10:25:50.774Z,10
2016-10-08T10:27:03.864Z,10
2016-10-08T10:28:17.554Z,10
2016-10-08T10:29:30.137Z,10
2016-10-08T10:30:43.589Z,10
2016-10-08T10:31:57.258Z,10
2016-10-08T10:33:10.379Z,10
2016-10-08T10:34:24.041Z,10
2016-10-08T10:35:37.709Z,10
2016-10-08T10:36:51.374Z,10
2016-10-08T10:38:04.965Z,10
2016-10-08T10:39:18.862Z,10
2016-10-08T10:40:32.504Z,10
2016-10-08T10:41:46.181Z,10
2016-10-08T10:42:59.745Z,15
2016-10-08T10:44:13.425Z,15
2016-10-08T10:45:27.159Z,15
2016-10-08T10:46:40.255Z,15
2016-10-08T10:47:53.948Z,15
2016-10-08T10:49:07.536Z,20
2016-10-08T10:50:21.153Z,20
2016-10-08T10:51:34.838Z,25
2016-10-08T10:52:48.446Z,25
2016-10-08T10:54:02.122Z,25
2016-10-08T10:55:15.233Z,25
2016-10-08T10:56:28.890Z,35
2016-10-08T10:57:42.809Z,40
2016-10-08T10:58:56.399Z,40
2016-10-08T11:00:10.073Z,45
2016-10-08T11:01:23.381Z,45
2016-10-08T11:02:36.990Z,45
2016-10-08T11:03:50.687Z,50
2016-10-08T11:05:04.359Z,50
2016-10-08T11:06:18.047Z,50
2016-10-08T11:07:31.677Z,55
2016-10-08T11:08:45.288Z,55
2016-10-08T11:09:58.335Z,60
2016-10-08T11:11:11.476Z,60
2016-10-08T11:12:24.540Z,60
2016-10-08T11:13:38.189Z,65
2016-10-08T11:14:52.030Z,65
2016-10-08T11:16:05.122Z,65
2016-10-08T11:17:19.108Z,65
2016-10-08T11:18:32.767Z,65
2016-10-08T11:19:46.154Z,70
2016-10-08T11:20:59.273Z,70
2016-10-08T11:22:13.005Z,70
2016-10-08T11:23:26.653Z,70
2016-10-08T11:24:40.216Z,70
2016-10-08T11:25:53.856Z,75
2016-10-08T11:27:07.400Z,75
2016-10-08T11:28:20.534Z,75
2016-10-08T11:29:33.644Z,75
2016-10-08T11:30:46.751Z,80
2016-10-08T11:32:00.412Z,80
2016-10-08T11:33:14.032Z,80
2016-10-08T11:34:27.689Z,80
2016-10-08T11:35:40.470Z,80
2016-10-08T11:36:54.133Z,85
2016-10-08T11:38:07.868Z,85
2016-10-08T11:39:20.414Z,85
2016-10-08T11:40:33.589Z,85
2016-10-08T11:41:47.263Z,90
2016-10-08T11:43:00.913Z,90
2016-10-08T11:44:14.512Z,90
2016-10-08T11:45:27.873Z,90
2016-10-08T11:46:41.463Z,95
2016-10-08T11:47:55.007Z,95
2016-10-08T11:49:07.631Z,95
2016-10-08T11:50:20.260Z,100
2016-10-08T11:51:33.639Z,100
2016-10-08T11:52:46.786Z,100
2016-10-08T11:54:00.455Z,100
2016-10-08T11:55:14.122Z,100
2016-10-08T11:56:27.778Z,100
2016-10-08T11:57:41.463Z,110
2016-10-08T11:58:55.101Z,105
2016-10-08T12:00:08.724Z,105
2016-10-08T12:01:22.416Z,110
2016-10-08T12:02:35.744Z,110
2016-10-08T12:03:49.088Z,115
2016-10-08T12:05:02.697Z,115
2016-10-08T12:06:16.310Z,115
2016-10-08T12:07:29.916Z,120
2016-10-08T12:08:43.648Z,120
2016-10-08T12:09:56.733Z,120
2016-10-08T12:11:09.889Z,125
2016-10-08T12:12:22.991Z,125
2016-10-08T12:13:36.713Z,125
2016-10-08T12:14:49.855Z,130
2016-10-08T12:16:03.537Z,130
2016-10-08T12:17:16.908Z,135
2016-10-08T12:18:30.526Z,135
2016-10-08T12:19:44.252Z,140
2016-10-08T12:20:57.895Z,140
2016-10-08T12:22:11.221Z,140
2016-10-08T12:23:24.841Z,145
2016-10-08T12:24:38.205Z,145
2016-10-08T12:25:52.196Z,150
2016-10-08T12:27:04.773Z,150
2016-10-08T12:28:18.401Z,150
2016-10-08T12:29:31.448Z,150
2016-10-08T12:30:45.147Z,150
2016-10-08T12:31:58.918Z,160
2016-10-08T12:33:12.978Z,155
2016-10-08T12:34:25.275Z,160
2016-10-08T12:35:38.729Z,155
2016-10-08T12:36:52.342Z,160
2016-10-08T12:38:06.026Z,160
2016-10-08T12:39:19.579Z,165
2016-10-08T12:40:33.249Z,165
2016-10-08T12:41:46.344Z,170
2016-10-08T12:43:00.035Z,170
2016-10-08T12:44:13.193Z,170
2016-10-08T12:45:26.840Z,175
2016-10-08T12:46:40.540Z,175
2016-10-08T12:47:54.160Z,180
2016-10-08T12:49:07.255Z,180
2016-10-08T12:50:20.860Z,180
2016-10-08T12:51:35.066Z,185
2016-10-08T12:52:49.282Z,185
2016-10-08T12:54:02.906Z,185
2016-10-08T12:55:15.839Z,185
2016-10-08T12:56:28.989Z,190
2016-10-08T12:57:43.029Z,190
2016-10-08T12:58:56.669Z,190
2016-10-08T13:00:09.888Z,190
2016-10-08T13:01:23.519Z,195
2016-10-08T13:02:36.845Z,195
2016-10-08T13:03:50.003Z,195
2016-10-08T13:05:03.392Z,195
2016-10-08T13:06:17.038Z,205
2016-10-08T13:07:30.702Z,200
2016-10-08T13:08:43.898Z,205
2016-10-08T13:09:57.507Z,205
2016-10-08T13:11:11.103Z,210
2016-10-08T13:12:23.664Z,210
2016-10-08T13:13:36.837Z,215
2016-10-08T13:14:50.514Z,215
2016-10-08T13:16:04.235Z,215
2016-10-08T13:17:18.056Z,175
2016-10-08T13:18:31.755Z,175
2016-10-08T13:19:45.485Z,180
2016-10-08T13:20:59.140Z,190
2016-10-08T13:22:13.085Z,200
2016-10-08T13:23:26.627Z,200
2016-10-08T13:24:40.239Z,200
2016-10-08T13:25:53.989Z,205
2016-10-08T13:27:07.716Z,205
2016-10-08T13:28:20.889Z,210
2016-10-08T13:29:34.506Z,210
2016-10-08T13:30:48.130Z,210
2016-10-08T13:32:01.826Z,215
2016-10-08T13:33:14.442Z,220
2016-10-08T13:34:28.122Z,235
2016-10-08T13:35:41.728Z,230
2016-10-08T13:36:55.382Z,235
2016-10-08T13:38:08.585Z,240
2016-10-08T13:39:21.665Z,250
2016-10-08T13:40:35.304Z,245
2016-10-08T13:41:47.897Z,250
2016-10-08T13:43:01.079Z,250
2016-10-08T13:44:14.723Z,250
2016-10-08T13:45:27.874Z,260
2016-10-08T13:46:41.540Z,260
2016-10-08T13:47:55.188Z,260
2016-10-08T13:49:08.861Z,265
2016-10-08T13:50:22.500Z,265
2016-10-08T13:51:35.073Z,265
2016-10-08T13:53:19.329Z,275
2016-10-08T13:54:32.964Z,270
2016-10-08T13:55:46.677Z,275
2016-10-08T13:56:59.835Z,295
2016-10-08T13:58:13.483Z,275
2016-10-08T13:59:27.336Z,280
2016-10-08T14:00:40.463Z,280
2016-10-08T14:02:25.195Z,285
2016-10-08T14:03:38.921Z,290
2016-10-08T14:04:51.492Z,295
2016-10-08T14:06:05.161Z,300
2016-10-08T14:07:18.681Z,305
2016-10-08T14:08:31.757Z,315
2016-10-08T14:09:45.386Z,315
2016-10-08T14:10:58.980Z,315
2016-10-08T14:12:12.331Z,315
2016-10-08T14:13:25.363Z,325
2016-10-08T14:14:39.050Z,35
2016-10-08T14:15:52.658Z,40
2016-10-08T14:17:05.984Z,100
2016-10-08T14:18:19.615Z,70
2016-10-08T14:19:33.361Z,95
2016-10-08T14:20:46.429Z,325
2016-10-08T14:22:00.147Z,325
2016-10-08T14:23:13.795Z,325
2016-10-08T14:24:26.983Z,325
2016-10-08T14:25:40.073Z,175
2016-10-08T14:26:53.236Z,330
2016-10-08T14:28:06.909Z,330
2016-10-08T14:29:19.938Z,330
2016-10-08T14:30:33.645Z,335
2016-10-08T14:31:47.390Z,335
2016-10-08T14:33:01.270Z,335
2016-10-08T14:34:14.901Z,335
2016-10-08T14:35:28.501Z,340
2016-10-08T14:36:41.141Z,340
2016-10-08T14:37:54.781Z,340
2016-10-08T14:39:08.451Z,340
2016-10-08T14:40:22.328Z,340
2016-10-08T14:41:35.948Z,340
2016-10-08T14:42:49.597Z,340
2016-10-08T14:44:03.272Z,340
2016-10-08T14:45:16.374Z,340
2016-10-08T14:46:29.724Z,340
2016-10-08T14:47:43.355Z,345
2016-10-08T14:48:57.006Z,345
2016-10-08T14:50:10.673Z,350
2016-10-08T14:51:24.322Z,355
2016-10-08T14:52:38.151Z,360
2016-10-08T14:53:51.741Z,90
2016-10-08T14:55:04.310Z,60
2016-10-08T14:56:16.893Z,350
2016-10-08T14:57:29.410Z,350
2016-10-08T14:58:43.132Z,340
2016-10-08T14:59:56.435Z,340
2016-10-08T15:01:08.962Z,340
2016-10-08T15:02:22.576Z,340
2016-10-08T15:03:36.228Z,345
2016-10-08T15:04:49.927Z,345
2016-10-08T15:06:03.554Z,350
2016-10-08T15:07:16.693Z,345
2016-10-08T15:08:30.313Z,345
2016-10-08T15:09:44.021Z,360
2016-10-08T15:10:57.660Z,115
2016-10-08T15:12:11.323Z,295
2016-10-08T15:13:24.901Z,140
2016-10-08T15:14:38.540Z,335
2016-10-08T15:15:52.347Z,205
2016-10-08T15:17:04.471Z,355
2016-10-08T15:18:18.146Z,355
2016-10-08T15:19:30.191Z,355
2016-10-08T15:20:43.848Z,355
2016-10-08T15:21:57.489Z,355
2016-10-08T15:23:11.329Z,355
2016-10-08T15:24:24.947Z,355
2016-10-08T15:25:38.565Z,360
2016-10-08T15:26:52.275Z,360
2016-10-08T15:28:05.380Z,360
2016-10-08T15:29:18.858Z,360
2016-10-08T15:30:32.810Z,365
2016-10-08T15:31:45.406Z,320
2016-10-08T15:32:59.096Z,370
2016-10-08T15:34:12.899Z,370
2016-10-08T15:35:26.537Z,375
2016-10-08T15:36:40.158Z,385
2016-10-08T15:37:53.353Z,395
2016-10-08T15:39:06.939Z,65
2016-10-08T15:40:20.613Z,55
2016-10-08T15:41:34.268Z,80
2016-10-08T15:42:47.916Z,410
2016-10-08T15:44:01.536Z,415
2016-10-08T15:45:14.601Z,420
2016-10-08T15:46:27.788Z,310
2016-10-08T15:47:41.404Z,275
2016-10-08T15:48:55.070Z,365
2016-10-08T15:50:08.704Z,80
2016-10-08T15:51:22.335Z,100
2016-10-08T15:52:35.432Z,55
2016-10-08T15:53:49.336Z,50
2016-10-08T15:55:03.058Z,50
2016-10-08T15:56:16.491Z,50
2016-10-08T15:57:30.235Z,55
2016-10-08T15:58:43.934Z,65
2016-10-08T15:59:57.751Z,85
2016-10-08T16:01:11.380Z,415
2016-10-08T16:02:25.052Z,415
2016-10-08T16:03:38.164Z,415
2016-10-08T16:04:51.835Z,410
2016-10-08T16:06:05.558Z,410
2016-10-08T16:07:18.889Z,410
2016-10-08T16:08:32.529Z,405
2016-10-08T16:09:46.236Z,410
2016-10-08T16:10:59.353Z,410
2016-10-08T16:12:13.149Z,410
2016-10-08T16:13:26.246Z,410
2016-10-08T16:14:39.370Z,410
2016-10-08T16:15:52.994Z,410
2016-10-08T16:17:05.644Z,415
2016-10-08T16:18:19.358Z,415
2016-10-08T16:19:32.957Z,415
2016-10-08T16:20:46.677Z,420
2016-10-08T16:22:00.364Z,420
2016-10-08T16:23:13.514Z,420
2016-10-08T16:24:26.618Z,420
2016-10-08T16:25:40.439Z,425
2016-10-08T16:26:53.564Z,425
2016-10-08T16:28:07.192Z,415
2016-10-08T16:29:20.855Z,415
2016-10-08T16:30:34.526Z,415
2016-10-08T16:31:48.192Z,410
2016-10-08T16:33:01.320Z,415
2016-10-08T16:34:14.400Z,410
2016-10-08T16:35:28.037Z,415
2016-10-08T16:36:41.714Z,420
2016-10-08T16:37:54.863Z,415
2016-10-08T16:39:08.529Z,415
2016-10-08T16:40:21.657Z,410
2016-10-08T16:41:34.777Z,405
2016-10-08T16:42:47.891Z,405
2016-10-08T16:44:00.932Z,400
2016-10-08T16:45:14.079Z,400
2016-10-08T16:46:27.806Z,400
2016-10-08T16:47:40.926Z,395
2016-10-08T16:48:54.654Z,395
2016-10-08T16:50:08.283Z,395
2016-10-08T16:51:22.512Z,390
2016-10-08T16:52:36.116Z,390
2016-10-08T16:53:49.693Z,385
2016-10-08T16:55:03.397Z,380
2016-10-08T16:56:17.028Z,380
2016-10-08T16:57:30.681Z,375
2016-10-08T16:58:44.328Z,375
2016-10-08T16:59:57.919Z,370
2016-10-08T17:01:11.018Z,370
2016-10-08T17:02:24.647Z,370
2016-10-08T17:03:38.338Z,365
2016-10-08T17:04:51.973Z,365
2016-10-08T17:06:05.623Z,360
2016-10-08T17:07:19.274Z,355
2016-10-08T17:08:33.089Z,360
2016-10-08T17:09:46.462Z,355
2016-10-08T17:10:59.638Z,355
2016-10-08T17:12:13.051Z,350
2016-10-08T17:13:26.742Z,345
2016-10-08T17:14:40.421Z,345
2016-10-08T17:15:54.157Z,345
2016-10-08T17:17:06.943Z,340
2016-10-08T17:18:20.609Z,340
2016-10-08T17:19:34.228Z,335
2016-10-08T17:20:47.811Z,330
2016-10-08T17:22:00.977Z,330
2016-10-08T17:23:13.551Z,330
2016-10-08T17:24:27.201Z,330
2016-10-08T17:25:40.588Z,325
2016-10-08T17:26:54.272Z,325
2016-10-08T17:28:08.000Z,325
2016-10-08T17:29:21.621Z,325
2016-10-08T17:30:49.216Z,320
2016-10-08T17:32:03.013Z,325
2016-10-08T17:33:16.661Z,225
2016-10-08T17:34:30.586Z,315
2016-10-08T17:35:44.185Z,315
2016-10-08T17:36:57.864Z,310
2016-10-08T17:38:11.623Z,305
2016-10-08T17:39:25.286Z,305
2016-10-08T17:40:38.384Z,300
2016-10-08T17:41:51.987Z,300